sensor_id;sensor_type;location;lat;lon;timestamp;P1;durP1;ratioP1;P2;durP2;ratioP2
4569;SDS011;2297;51.442;6.996;2024-02-21T00:00:42;25.23;;;9.40;;
4569;SDS011;2297;51.442;6.996;2024-02-21T00:03:09;28.13;;;10.20;;
4569;SDS011;2297;51.442;6.996;2024-02-21T00:05:36;26.25;;;9.38;;
4569;SDS011;2297;51.442;6.996;2024-02-21T00:08:02;26.92;;;9.85;;
4569;SDS011;2297;51.442;6.996;2024-02-21T00:10:30;25.90;;;10.07;;
4569;SDS011;2297;51.442;6.996;2024-02-21T00:12:58;28.50;;;9.80;;
4569;SDS011;2297;51.442;6.996;2024-02-21T00:15:25;31.20;;;9.88;;
4569;SDS011;2297;51.442;6.996;2024-02-21T00:17:52;25.15;;;9.82;;
4569;SDS011;2297;51.442;6.996;2024-02-21T00:20:18;28.58;;;11.10;;
4569;SDS011;2297;51.442;6.996;2024-02-21T00:22:45;29.23;;;10.88;;
4569;SDS011;2297;51.442;6.996;2024-02-21T00:25:12;24.13;;;10.32;;
4569;SDS011;2297;51.442;6.996;2024-02-21T00:27:40;24.67;;;9.73;;
4569;SDS011;2297;51.442;6.996;2024-02-21T00:30:07;27.73;;;9.85;;
4569;SDS011;2297;51.442;6.996;2024-02-21T00:32:35;21.73;;;10.15;;
4569;SDS011;2297;51.442;6.996;2024-02-21T00:35:01;24.65;;;10.23;;
4569;SDS011;2297;51.442;6.996;2024-02-21T00:37:28;22.67;;;9.10;;
4569;SDS011;2297;51.442;6.996;2024-02-21T00:39:55;27.35;;;9.70;;
4569;SDS011;2297;51.442;6.996;2024-02-21T00:42:21;27.08;;;11.05;;
4569;SDS011;2297;51.442;6.996;2024-02-21T00:44:49;28.85;;;10.07;;
4569;SDS011;2297;51.442;6.996;2024-02-21T00:47:16;29.73;;;10.20;;
4569;SDS011;2297;51.442;6.996;2024-02-21T00:49:42;33.33;;;10.98;;
4569;SDS011;2297;51.442;6.996;2024-02-21T00:52:09;23.10;;;10.00;;
4569;SDS011;2297;51.442;6.996;2024-02-21T00:54:36;23.85;;;9.40;;
4569;SDS011;2297;51.442;6.996;2024-02-21T00:57:02;26.92;;;10.93;;
4569;SDS011;2297;51.442;6.996;2024-02-21T00:59:29;23.92;;;9.48;;
4569;SDS011;2297;51.442;6.996;2024-02-21T01:01:58;27.50;;;11.55;;
4569;SDS011;2297;51.442;6.996;2024-02-21T01:04:25;25.45;;;10.75;;
4569;SDS011;2297;51.442;6.996;2024-02-21T01:06:52;25.45;;;10.38;;
4569;SDS011;2297;51.442;6.996;2024-02-21T01:09:18;25.45;;;10.30;;
4569;SDS011;2297;51.442;6.996;2024-02-21T01:11:45;26.20;;;9.57;;
4569;SDS011;2297;51.442;6.996;2024-02-21T01:14:11;27.88;;;10.90;;
4569;SDS011;2297;51.442;6.996;2024-02-21T01:16:38;25.25;;;9.35;;
4569;SDS011;2297;51.442;6.996;2024-02-21T01:19:06;26.85;;;9.70;;
4569;SDS011;2297;51.442;6.996;2024-02-21T01:21:33;33.25;;;10.02;;
4569;SDS011;2297;51.442;6.996;2024-02-21T01:23:59;25.23;;;10.23;;
4569;SDS011;2297;51.442;6.996;2024-02-21T01:26:26;22.23;;;8.98;;
4569;SDS011;2297;51.442;6.996;2024-02-21T01:28:53;24.60;;;8.88;;
4569;SDS011;2297;51.442;6.996;2024-02-21T01:31:19;32.05;;;10.40;;
4569;SDS011;2297;51.442;6.996;2024-02-21T01:33:46;26.27;;;10.65;;
4569;SDS011;2297;51.442;6.996;2024-02-21T01:36:14;25.08;;;9.85;;
4569;SDS011;2297;51.442;6.996;2024-02-21T01:38:41;23.08;;;9.57;;
4569;SDS011;2297;51.442;6.996;2024-02-21T01:41:07;31.60;;;11.07;;
4569;SDS011;2297;51.442;6.996;2024-02-21T01:43:34;22.70;;;9.48;;
4569;SDS011;2297;51.442;6.996;2024-02-21T01:46:01;21.30;;;9.50;;
4569;SDS011;2297;51.442;6.996;2024-02-21T01:48:28;28.92;;;10.85;;
4569;SDS011;2297;51.442;6.996;2024-02-21T01:50:55;28.75;;;10.73;;
4569;SDS011;2297;51.442;6.996;2024-02-21T01:53:25;25.30;;;9.73;;
4569;SDS011;2297;51.442;6.996;2024-02-21T01:55:58;29.05;;;10.75;;
4569;SDS011;2297;51.442;6.996;2024-02-21T01:58:25;26.05;;;9.43;;
4569;SDS011;2297;51.442;6.996;2024-02-21T02:00:52;24.50;;;9.55;;
4569;SDS011;2297;51.442;6.996;2024-02-21T02:03:22;28.58;;;10.13;;
4569;SDS011;2297;51.442;6.996;2024-02-21T02:06:03;21.48;;;10.02;;
4569;SDS011;2297;51.442;6.996;2024-02-21T02:08:32;28.30;;;10.38;;
4569;SDS011;2297;51.442;6.996;2024-02-21T02:10:59;30.30;;;9.75;;
4569;SDS011;2297;51.442;6.996;2024-02-21T02:13:26;28.80;;;9.70;;
4569;SDS011;2297;51.442;6.996;2024-02-21T02:15:52;24.95;;;9.38;;
4569;SDS011;2297;51.442;6.996;2024-02-21T02:18:19;27.45;;;9.63;;
4569;SDS011;2297;51.442;6.996;2024-02-21T02:20:46;26.58;;;9.70;;
4569;SDS011;2297;51.442;6.996;2024-02-21T02:23:17;23.85;;;9.88;;
4569;SDS011;2297;51.442;6.996;2024-02-21T02:28:17;31.67;;;9.48;;
4569;SDS011;2297;51.442;6.996;2024-02-21T02:30:44;28.02;;;9.32;;
4569;SDS011;2297;51.442;6.996;2024-02-21T02:33:10;31.63;;;10.73;;
4569;SDS011;2297;51.442;6.996;2024-02-21T02:35:37;22.17;;;9.93;;
4569;SDS011;2297;51.442;6.996;2024-02-21T02:38:04;24.70;;;10.15;;
4569;SDS011;2297;51.442;6.996;2024-02-21T02:40:33;22.48;;;9.27;;
4569;SDS011;2297;51.442;6.996;2024-02-21T02:43:00;22.52;;;9.48;;
4569;SDS011;2297;51.442;6.996;2024-02-21T02:45:28;24.05;;;9.32;;
4569;SDS011;2297;51.442;6.996;2024-02-21T02:47:55;23.75;;;10.00;;
4569;SDS011;2297;51.442;6.996;2024-02-21T02:50:22;27.58;;;10.32;;
4569;SDS011;2297;51.442;6.996;2024-02-21T02:52:49;28.23;;;11.13;;
4569;SDS011;2297;51.442;6.996;2024-02-21T02:55:16;23.80;;;9.70;;
4569;SDS011;2297;51.442;6.996;2024-02-21T02:57:44;25.00;;;9.88;;
4569;SDS011;2297;51.442;6.996;2024-02-21T03:00:11;25.38;;;9.38;;
4569;SDS011;2297;51.442;6.996;2024-02-21T03:02:39;21.60;;;9.63;;
4569;SDS011;2297;51.442;6.996;2024-02-21T03:05:11;25.48;;;9.55;;
4569;SDS011;2297;51.442;6.996;2024-02-21T03:07:54;23.73;;;9.60;;
4569;SDS011;2297;51.442;6.996;2024-02-21T03:10:21;23.35;;;9.57;;
4569;SDS011;2297;51.442;6.996;2024-02-21T03:12:49;20.70;;;8.73;;
4569;SDS011;2297;51.442;6.996;2024-02-21T03:15:18;24.08;;;8.50;;
4569;SDS011;2297;51.442;6.996;2024-02-21T03:17:44;30.60;;;9.38;;
4569;SDS011;2297;51.442;6.996;2024-02-21T03:20:12;24.25;;;9.32;;
4569;SDS011;2297;51.442;6.996;2024-02-21T03:22:38;22.15;;;8.48;;
4569;SDS011;2297;51.442;6.996;2024-02-21T03:25:06;24.73;;;9.82;;
4569;SDS011;2297;51.442;6.996;2024-02-21T03:27:33;24.40;;;9.38;;
4569;SDS011;2297;51.442;6.996;2024-02-21T03:30:02;18.70;;;9.25;;
4569;SDS011;2297;51.442;6.996;2024-02-21T03:32:29;27.35;;;9.52;;
4569;SDS011;2297;51.442;6.996;2024-02-21T03:34:56;16.48;;;8.50;;
4569;SDS011;2297;51.442;6.996;2024-02-21T03:37:22;22.65;;;8.70;;
4569;SDS011;2297;51.442;6.996;2024-02-21T03:42:40;21.33;;;9.00;;
4569;SDS011;2297;51.442;6.996;2024-02-21T03:45:09;26.95;;;8.77;;
4569;SDS011;2297;51.442;6.996;2024-02-21T03:50:46;22.30;;;8.75;;
4569;SDS011;2297;51.442;6.996;2024-02-21T03:53:13;19.50;;;8.50;;
4569;SDS011;2297;51.442;6.996;2024-02-21T03:55:39;21.90;;;8.07;;
4569;SDS011;2297;51.442;6.996;2024-02-21T03:58:06;17.02;;;8.02;;
4569;SDS011;2297;51.442;6.996;2024-02-21T04:00:34;28.67;;;9.20;;
4569;SDS011;2297;51.442;6.996;2024-02-21T04:03:01;20.90;;;8.15;;
4569;SDS011;2297;51.442;6.996;2024-02-21T04:05:27;26.10;;;8.95;;
4569;SDS011;2297;51.442;6.996;2024-02-21T04:07:54;21.65;;;9.20;;
4569;SDS011;2297;51.442;6.996;2024-02-21T04:10:21;25.13;;;8.35;;
4569;SDS011;2297;51.442;6.996;2024-02-21T04:12:47;18.90;;;7.70;;
4569;SDS011;2297;51.442;6.996;2024-02-21T04:15:15;21.58;;;8.80;;
4569;SDS011;2297;51.442;6.996;2024-02-21T04:17:43;23.73;;;8.45;;
4569;SDS011;2297;51.442;6.996;2024-02-21T04:20:13;17.77;;;8.32;;
4569;SDS011;2297;51.442;6.996;2024-02-21T04:22:42;20.70;;;7.68;;
4569;SDS011;2297;51.442;6.996;2024-02-21T04:25:09;19.38;;;8.73;;
4569;SDS011;2297;51.442;6.996;2024-02-21T04:27:36;21.52;;;8.82;;
4569;SDS011;2297;51.442;6.996;2024-02-21T04:30:03;20.77;;;7.80;;
4569;SDS011;2297;51.442;6.996;2024-02-21T04:32:30;19.25;;;7.75;;
4569;SDS011;2297;51.442;6.996;2024-02-21T04:34:58;19.08;;;8.30;;
4569;SDS011;2297;51.442;6.996;2024-02-21T04:37:25;22.08;;;8.15;;
4569;SDS011;2297;51.442;6.996;2024-02-21T04:39:51;20.10;;;7.82;;
4569;SDS011;2297;51.442;6.996;2024-02-21T04:42:18;20.88;;;7.10;;
4569;SDS011;2297;51.442;6.996;2024-02-21T04:44:45;19.83;;;8.77;;
4569;SDS011;2297;51.442;6.996;2024-02-21T04:47:11;20.13;;;7.68;;
4569;SDS011;2297;51.442;6.996;2024-02-21T04:49:38;21.48;;;8.82;;
4569;SDS011;2297;51.442;6.996;2024-02-21T04:52:06;16.40;;;7.32;;
4569;SDS011;2297;51.442;6.996;2024-02-21T04:54:33;20.13;;;7.38;;
4569;SDS011;2297;51.442;6.996;2024-02-21T04:57:00;17.95;;;7.05;;
4569;SDS011;2297;51.442;6.996;2024-02-21T04:59:27;14.02;;;7.10;;
4569;SDS011;2297;51.442;6.996;2024-02-21T05:01:54;20.85;;;7.60;;
4569;SDS011;2297;51.442;6.996;2024-02-21T05:04:21;21.52;;;8.13;;
4569;SDS011;2297;51.442;6.996;2024-02-21T05:06:47;18.63;;;7.30;;
4569;SDS011;2297;51.442;6.996;2024-02-21T05:09:15;16.40;;;7.68;;
4569;SDS011;2297;51.442;6.996;2024-02-21T05:11:42;19.80;;;7.13;;
4569;SDS011;2297;51.442;6.996;2024-02-21T05:14:09;16.15;;;6.75;;
4569;SDS011;2297;51.442;6.996;2024-02-21T05:16:35;21.58;;;7.68;;
4569;SDS011;2297;51.442;6.996;2024-02-21T05:19:02;20.17;;;7.00;;
4569;SDS011;2297;51.442;6.996;2024-02-21T05:21:29;14.23;;;7.35;;
4569;SDS011;2297;51.442;6.996;2024-02-21T05:23:56;17.17;;;7.35;;
4569;SDS011;2297;51.442;6.996;2024-02-21T05:26:24;17.05;;;7.03;;
4569;SDS011;2297;51.442;6.996;2024-02-21T05:28:51;15.85;;;7.22;;
4569;SDS011;2297;51.442;6.996;2024-02-21T05:31:18;17.45;;;6.78;;
4569;SDS011;2297;51.442;6.996;2024-02-21T05:33:45;14.68;;;6.82;;
4569;SDS011;2297;51.442;6.996;2024-02-21T05:36:12;16.20;;;7.35;;
4569;SDS011;2297;51.442;6.996;2024-02-21T05:38:39;20.77;;;8.38;;
4569;SDS011;2297;51.442;6.996;2024-02-21T05:41:06;16.33;;;6.55;;
4569;SDS011;2297;51.442;6.996;2024-02-21T05:43:34;15.13;;;6.28;;
4569;SDS011;2297;51.442;6.996;2024-02-21T05:46:01;17.08;;;7.07;;
4569;SDS011;2297;51.442;6.996;2024-02-21T05:48:28;19.98;;;8.32;;
4569;SDS011;2297;51.442;6.996;2024-02-21T05:50:54;14.25;;;6.25;;
4569;SDS011;2297;51.442;6.996;2024-02-21T05:53:21;12.02;;;6.10;;
4569;SDS011;2297;51.442;6.996;2024-02-21T05:55:48;14.75;;;6.25;;
4569;SDS011;2297;51.442;6.996;2024-02-21T05:58:14;14.38;;;6.00;;
4569;SDS011;2297;51.442;6.996;2024-02-21T06:00:42;15.50;;;6.18;;
4569;SDS011;2297;51.442;6.996;2024-02-21T06:03:09;17.27;;;6.25;;
4569;SDS011;2297;51.442;6.996;2024-02-21T06:05:38;15.63;;;6.00;;
4569;SDS011;2297;51.442;6.996;2024-02-21T06:08:05;14.27;;;6.25;;
4569;SDS011;2297;51.442;6.996;2024-02-21T06:10:33;13.10;;;5.53;;
4569;SDS011;2297;51.442;6.996;2024-02-21T06:12:59;16.92;;;5.97;;
4569;SDS011;2297;51.442;6.996;2024-02-21T06:15:26;10.82;;;5.82;;
4569;SDS011;2297;51.442;6.996;2024-02-21T06:17:54;19.65;;;5.95;;
4569;SDS011;2297;51.442;6.996;2024-02-21T06:20:21;16.73;;;6.25;;
4569;SDS011;2297;51.442;6.996;2024-02-21T06:22:47;11.95;;;5.45;;
4569;SDS011;2297;51.442;6.996;2024-02-21T06:25:14;14.40;;;5.47;;
4569;SDS011;2297;51.442;6.996;2024-02-21T06:27:41;15.52;;;5.80;;
4569;SDS011;2297;51.442;6.996;2024-02-21T06:30:07;13.82;;;5.97;;
4569;SDS011;2297;51.442;6.996;2024-02-21T06:32:35;15.77;;;5.70;;
4569;SDS011;2297;51.442;6.996;2024-02-21T06:40:23;13.07;;;5.07;;
4569;SDS011;2297;51.442;6.996;2024-02-21T06:42:50;20.33;;;5.35;;
4569;SDS011;2297;51.442;6.996;2024-02-21T06:45:17;12.15;;;5.18;;
4569;SDS011;2297;51.442;6.996;2024-02-21T06:47:43;21.90;;;5.93;;
4569;SDS011;2297;51.442;6.996;2024-02-21T06:50:10;16.15;;;5.72;;
4569;SDS011;2297;51.442;6.996;2024-02-21T06:52:38;13.98;;;5.72;;
4569;SDS011;2297;51.442;6.996;2024-02-21T06:55:04;12.13;;;5.57;;
4569;SDS011;2297;51.442;6.996;2024-02-21T06:57:31;11.82;;;5.85;;
4569;SDS011;2297;51.442;6.996;2024-02-21T06:59:58;19.23;;;5.93;;
4569;SDS011;2297;51.442;6.996;2024-02-21T07:02:24;10.05;;;5.45;;
4569;SDS011;2297;51.442;6.996;2024-02-21T07:04:51;11.85;;;5.65;;
4569;SDS011;2297;51.442;6.996;2024-02-21T07:07:18;14.05;;;5.78;;
4569;SDS011;2297;51.442;6.996;2024-02-21T07:09:45;16.20;;;5.82;;
4569;SDS011;2297;51.442;6.996;2024-02-21T07:12:13;15.73;;;5.60;;
4569;SDS011;2297;51.442;6.996;2024-02-21T07:14:40;14.57;;;5.38;;
4569;SDS011;2297;51.442;6.996;2024-02-21T07:17:07;14.95;;;5.45;;
4569;SDS011;2297;51.442;6.996;2024-02-21T07:19:34;13.93;;;5.47;;
4569;SDS011;2297;51.442;6.996;2024-02-21T07:22:01;14.77;;;5.20;;
4569;SDS011;2297;51.442;6.996;2024-02-21T07:24:28;17.90;;;5.40;;
4569;SDS011;2297;51.442;6.996;2024-02-21T07:26:56;12.38;;;5.68;;
4569;SDS011;2297;51.442;6.996;2024-02-21T07:29:22;20.15;;;6.50;;
4569;SDS011;2297;51.442;6.996;2024-02-21T07:31:49;13.90;;;5.55;;
4569;SDS011;2297;51.442;6.996;2024-02-21T07:34:16;13.77;;;5.53;;
4569;SDS011;2297;51.442;6.996;2024-02-21T07:36:43;14.30;;;5.22;;
4569;SDS011;2297;51.442;6.996;2024-02-21T07:39:10;14.82;;;5.15;;
4569;SDS011;2297;51.442;6.996;2024-02-21T07:41:37;11.88;;;5.85;;
4569;SDS011;2297;51.442;6.996;2024-02-21T07:44:06;13.60;;;5.90;;
4569;SDS011;2297;51.442;6.996;2024-02-21T07:46:33;18.35;;;5.70;;
4569;SDS011;2297;51.442;6.996;2024-02-21T07:49:00;12.65;;;5.57;;
4569;SDS011;2297;51.442;6.996;2024-02-21T07:51:27;14.23;;;5.68;;
4569;SDS011;2297;51.442;6.996;2024-02-21T07:53:54;15.15;;;5.85;;
4569;SDS011;2297;51.442;6.996;2024-02-21T07:56:20;15.10;;;5.15;;
4569;SDS011;2297;51.442;6.996;2024-02-21T07:58:47;12.38;;;5.45;;
4569;SDS011;2297;51.442;6.996;2024-02-21T08:01:19;10.80;;;5.38;;
4569;SDS011;2297;51.442;6.996;2024-02-21T08:03:46;14.88;;;5.28;;
4569;SDS011;2297;51.442;6.996;2024-02-21T08:06:13;18.52;;;5.95;;
4569;SDS011;2297;51.442;6.996;2024-02-21T08:08:39;11.07;;;4.95;;
4569;SDS011;2297;51.442;6.996;2024-02-21T08:11:06;16.90;;;4.72;;
4569;SDS011;2297;51.442;6.996;2024-02-21T08:13:33;12.18;;;4.80;;
4569;SDS011;2297;51.442;6.996;2024-02-21T08:16:00;9.35;;;4.18;;
4569;SDS011;2297;51.442;6.996;2024-02-21T08:18:28;13.38;;;4.90;;
4569;SDS011;2297;51.442;6.996;2024-02-21T08:20:54;10.00;;;4.25;;
4569;SDS011;2297;51.442;6.996;2024-02-21T08:23:23;11.02;;;4.30;;
4569;SDS011;2297;51.442;6.996;2024-02-21T08:25:50;15.40;;;4.85;;
4569;SDS011;2297;51.442;6.996;2024-02-21T08:28:16;13.95;;;5.22;;
4569;SDS011;2297;51.442;6.996;2024-02-21T08:30:43;24.48;;;5.50;;
4569;SDS011;2297;51.442;6.996;2024-02-21T08:33:13;12.57;;;4.72;;
4569;SDS011;2297;51.442;6.996;2024-02-21T08:35:41;10.85;;;4.05;;
4569;SDS011;2297;51.442;6.996;2024-02-21T08:38:07;14.50;;;5.15;;
4569;SDS011;2297;51.442;6.996;2024-02-21T08:40:34;14.85;;;4.97;;
4569;SDS011;2297;51.442;6.996;2024-02-21T08:43:02;13.10;;;4.85;;
4569;SDS011;2297;51.442;6.996;2024-02-21T08:45:28;19.02;;;5.03;;
4569;SDS011;2297;51.442;6.996;2024-02-21T08:47:55;13.68;;;5.15;;
4569;SDS011;2297;51.442;6.996;2024-02-21T08:50:22;15.15;;;6.53;;
4569;SDS011;2297;51.442;6.996;2024-02-21T08:52:50;12.82;;;4.55;;
4569;SDS011;2297;51.442;6.996;2024-02-21T08:55:16;11.45;;;4.95;;
4569;SDS011;2297;51.442;6.996;2024-02-21T08:57:43;14.43;;;4.80;;
4569;SDS011;2297;51.442;6.996;2024-02-21T09:00:10;14.82;;;5.32;;
4569;SDS011;2297;51.442;6.996;2024-02-21T09:02:39;12.27;;;5.35;;
4569;SDS011;2297;51.442;6.996;2024-02-21T09:05:08;10.68;;;4.55;;
4569;SDS011;2297;51.442;6.996;2024-02-21T09:07:34;13.90;;;4.82;;
4569;SDS011;2297;51.442;6.996;2024-02-21T09:10:02;16.60;;;5.05;;
4569;SDS011;2297;51.442;6.996;2024-02-21T09:12:30;11.60;;;4.80;;
4569;SDS011;2297;51.442;6.996;2024-02-21T09:14:57;11.88;;;4.53;;
4569;SDS011;2297;51.442;6.996;2024-02-21T09:17:23;12.35;;;5.30;;
4569;SDS011;2297;51.442;6.996;2024-02-21T09:19:50;10.77;;;4.70;;
4569;SDS011;2297;51.442;6.996;2024-02-21T09:22:17;8.63;;;4.35;;
4569;SDS011;2297;51.442;6.996;2024-02-21T09:24:43;13.27;;;4.35;;
4569;SDS011;2297;51.442;6.996;2024-02-21T09:27:11;11.02;;;4.47;;
4569;SDS011;2297;51.442;6.996;2024-02-21T09:29:38;14.25;;;5.10;;
4569;SDS011;2297;51.442;6.996;2024-02-21T09:32:05;11.32;;;4.70;;
4569;SDS011;2297;51.442;6.996;2024-02-21T09:34:32;12.23;;;3.70;;
4569;SDS011;2297;51.442;6.996;2024-02-21T09:36:59;10.82;;;4.20;;
4569;SDS011;2297;51.442;6.996;2024-02-21T09:39:25;8.40;;;4.00;;
4569;SDS011;2297;51.442;6.996;2024-02-21T09:41:53;16.25;;;5.35;;
4569;SDS011;2297;51.442;6.996;2024-02-21T09:44:27;12.77;;;4.40;;
4569;SDS011;2297;51.442;6.996;2024-02-21T09:47:01;10.60;;;3.45;;
4569;SDS011;2297;51.442;6.996;2024-02-21T09:49:30;8.55;;;3.65;;
4569;SDS011;2297;51.442;6.996;2024-02-21T09:51:57;10.88;;;4.53;;
4569;SDS011;2297;51.442;6.996;2024-02-21T09:54:32;7.80;;;3.80;;
4569;SDS011;2297;51.442;6.996;2024-02-21T09:56:59;7.80;;;3.70;;
4569;SDS011;2297;51.442;6.996;2024-02-21T09:59:27;8.43;;;4.05;;
4569;SDS011;2297;51.442;6.996;2024-02-21T10:01:54;6.97;;;3.58;;
4569;SDS011;2297;51.442;6.996;2024-02-21T10:04:21;9.05;;;4.32;;
4569;SDS011;2297;51.442;6.996;2024-02-21T10:06:48;8.57;;;4.20;;
4569;SDS011;2297;51.442;6.996;2024-02-21T10:09:21;9.93;;;4.57;;
4569;SDS011;2297;51.442;6.996;2024-02-21T10:11:49;14.25;;;4.93;;
4569;SDS011;2297;51.442;6.996;2024-02-21T10:14:16;11.32;;;4.57;;
4569;SDS011;2297;51.442;6.996;2024-02-21T10:16:44;9.25;;;4.75;;
4569;SDS011;2297;51.442;6.996;2024-02-21T10:19:17;8.88;;;4.95;;
4569;SDS011;2297;51.442;6.996;2024-02-21T10:21:57;14.63;;;5.38;;
4569;SDS011;2297;51.442;6.996;2024-02-21T10:24:33;11.65;;;5.40;;
4569;SDS011;2297;51.442;6.996;2024-02-21T10:27:03;11.23;;;5.05;;
4569;SDS011;2297;51.442;6.996;2024-02-21T10:29:33;13.02;;;5.55;;
4569;SDS011;2297;51.442;6.996;2024-02-21T10:32:05;12.93;;;4.35;;
4569;SDS011;2297;51.442;6.996;2024-02-21T10:34:33;9.75;;;4.32;;
4569;SDS011;2297;51.442;6.996;2024-02-21T10:37:00;11.73;;;4.45;;
4569;SDS011;2297;51.442;6.996;2024-02-21T10:39:28;14.70;;;4.30;;
4569;SDS011;2297;51.442;6.996;2024-02-21T10:41:55;6.70;;;3.90;;
4569;SDS011;2297;51.442;6.996;2024-02-21T10:44:25;8.75;;;4.00;;
4569;SDS011;2297;51.442;6.996;2024-02-21T10:46:54;8.70;;;4.10;;
4569;SDS011;2297;51.442;6.996;2024-02-21T10:49:23;9.80;;;4.57;;
4569;SDS011;2297;51.442;6.996;2024-02-21T10:51:53;9.98;;;4.13;;
4569;SDS011;2297;51.442;6.996;2024-02-21T10:54:37;8.60;;;4.55;;
4569;SDS011;2297;51.442;6.996;2024-02-21T10:57:10;8.55;;;4.07;;
4569;SDS011;2297;51.442;6.996;2024-02-21T10:59:37;11.85;;;4.90;;
4569;SDS011;2297;51.442;6.996;2024-02-21T11:02:05;11.25;;;4.38;;
4569;SDS011;2297;51.442;6.996;2024-02-21T11:04:33;10.18;;;4.32;;
4569;SDS011;2297;51.442;6.996;2024-02-21T11:07:02;12.50;;;4.05;;
4569;SDS011;2297;51.442;6.996;2024-02-21T11:09:30;8.93;;;4.07;;
4569;SDS011;2297;51.442;6.996;2024-02-21T11:11:58;14.23;;;4.63;;
4569;SDS011;2297;51.442;6.996;2024-02-21T11:14:26;10.10;;;4.40;;
4569;SDS011;2297;51.442;6.996;2024-02-21T11:16:54;10.38;;;4.78;;
4569;SDS011;2297;51.442;6.996;2024-02-21T11:19:23;9.27;;;4.50;;
4569;SDS011;2297;51.442;6.996;2024-02-21T11:25:12;9.77;;;4.28;;
4569;SDS011;2297;51.442;6.996;2024-02-21T11:27:38;8.63;;;4.00;;
4569;SDS011;2297;51.442;6.996;2024-02-21T11:30:11;12.38;;;4.30;;
4569;SDS011;2297;51.442;6.996;2024-02-21T11:32:39;9.88;;;4.05;;
4569;SDS011;2297;51.442;6.996;2024-02-21T11:35:07;8.93;;;4.25;;
4569;SDS011;2297;51.442;6.996;2024-02-21T11:37:34;10.02;;;4.68;;
4569;SDS011;2297;51.442;6.996;2024-02-21T11:40:03;10.25;;;4.43;;
4569;SDS011;2297;51.442;6.996;2024-02-21T11:42:36;13.05;;;4.50;;
4569;SDS011;2297;51.442;6.996;2024-02-21T11:45:03;10.80;;;5.10;;
4569;SDS011;2297;51.442;6.996;2024-02-21T11:50:29;8.82;;;3.92;;
4569;SDS011;2297;51.442;6.996;2024-02-21T11:52:57;9.07;;;4.30;;
4569;SDS011;2297;51.442;6.996;2024-02-21T11:55:23;11.77;;;4.85;;
4569;SDS011;2297;51.442;6.996;2024-02-21T11:57:51;11.60;;;4.90;;
4569;SDS011;2297;51.442;6.996;2024-02-21T12:00:19;9.30;;;4.18;;
4569;SDS011;2297;51.442;6.996;2024-02-21T12:02:46;8.43;;;3.97;;
4569;SDS011;2297;51.442;6.996;2024-02-21T12:05:13;7.32;;;4.45;;
4569;SDS011;2297;51.442;6.996;2024-02-21T12:07:40;7.93;;;4.10;;
4569;SDS011;2297;51.442;6.996;2024-02-21T12:10:08;9.88;;;4.20;;
4569;SDS011;2297;51.442;6.996;2024-02-21T12:12:36;7.10;;;3.83;;
4569;SDS011;2297;51.442;6.996;2024-02-21T12:15:06;9.30;;;3.55;;
4569;SDS011;2297;51.442;6.996;2024-02-21T12:17:33;13.30;;;4.18;;
4569;SDS011;2297;51.442;6.996;2024-02-21T12:20:00;9.82;;;3.72;;
4569;SDS011;2297;51.442;6.996;2024-02-21T12:22:30;11.70;;;4.40;;
4569;SDS011;2297;51.442;6.996;2024-02-21T12:24:57;10.07;;;3.60;;
4569;SDS011;2297;51.442;6.996;2024-02-21T12:27:24;8.23;;;3.63;;
4569;SDS011;2297;51.442;6.996;2024-02-21T12:29:51;7.80;;;3.40;;
4569;SDS011;2297;51.442;6.996;2024-02-21T12:32:19;11.18;;;4.47;;
4569;SDS011;2297;51.442;6.996;2024-02-21T12:34:46;8.82;;;3.55;;
4569;SDS011;2297;51.442;6.996;2024-02-21T12:37:13;9.80;;;3.90;;
4569;SDS011;2297;51.442;6.996;2024-02-21T12:39:41;7.88;;;3.45;;
4569;SDS011;2297;51.442;6.996;2024-02-21T12:42:07;7.68;;;3.25;;
4569;SDS011;2297;51.442;6.996;2024-02-21T12:44:36;14.30;;;4.25;;
4569;SDS011;2297;51.442;6.996;2024-02-21T12:47:03;10.80;;;3.85;;
4569;SDS011;2297;51.442;6.996;2024-02-21T12:49:31;7.50;;;3.70;;
4569;SDS011;2297;51.442;6.996;2024-02-21T12:51:58;9.82;;;3.30;;
4569;SDS011;2297;51.442;6.996;2024-02-21T12:54:24;9.73;;;3.22;;
4569;SDS011;2297;51.442;6.996;2024-02-21T12:56:51;8.65;;;3.25;;
4569;SDS011;2297;51.442;6.996;2024-02-21T12:59:17;8.73;;;3.30;;
4569;SDS011;2297;51.442;6.996;2024-02-21T13:01:44;5.32;;;3.10;;
4569;SDS011;2297;51.442;6.996;2024-02-21T13:04:11;10.90;;;3.35;;
4569;SDS011;2297;51.442;6.996;2024-02-21T13:06:38;11.25;;;3.42;;
4569;SDS011;2297;51.442;6.996;2024-02-21T13:09:05;10.77;;;3.47;;
4569;SDS011;2297;51.442;6.996;2024-02-21T13:11:36;8.27;;;3.30;;
4569;SDS011;2297;51.442;6.996;2024-02-21T13:14:02;13.93;;;3.53;;
4569;SDS011;2297;51.442;6.996;2024-02-21T13:16:29;10.07;;;3.47;;
4569;SDS011;2297;51.442;6.996;2024-02-21T13:18:56;8.43;;;3.80;;
4569;SDS011;2297;51.442;6.996;2024-02-21T13:21:22;8.95;;;3.47;;
4569;SDS011;2297;51.442;6.996;2024-02-21T13:23:50;9.18;;;3.10;;
4569;SDS011;2297;51.442;6.996;2024-02-21T13:26:17;12.55;;;3.80;;
4569;SDS011;2297;51.442;6.996;2024-02-21T13:28:45;10.00;;;3.10;;
4569;SDS011;2297;51.442;6.996;2024-02-21T13:31:13;8.05;;;3.38;;
4569;SDS011;2297;51.442;6.996;2024-02-21T13:33:41;8.85;;;3.42;;
4569;SDS011;2297;51.442;6.996;2024-02-21T13:36:09;11.57;;;3.22;;
4569;SDS011;2297;51.442;6.996;2024-02-21T13:38:36;9.32;;;2.90;;
4569;SDS011;2297;51.442;6.996;2024-02-21T13:41:05;10.77;;;3.40;;
4569;SDS011;2297;51.442;6.996;2024-02-21T13:43:31;8.93;;;3.20;;
4569;SDS011;2297;51.442;6.996;2024-02-21T13:45:59;9.43;;;3.42;;
4569;SDS011;2297;51.442;6.996;2024-02-21T13:48:27;6.63;;;3.00;;
4569;SDS011;2297;51.442;6.996;2024-02-21T13:50:55;8.98;;;2.97;;
4569;SDS011;2297;51.442;6.996;2024-02-21T13:53:21;8.82;;;3.13;;
4569;SDS011;2297;51.442;6.996;2024-02-21T13:55:48;9.27;;;3.13;;
4569;SDS011;2297;51.442;6.996;2024-02-21T13:58:17;9.85;;;3.28;;
4569;SDS011;2297;51.442;6.996;2024-02-21T14:00:43;6.63;;;3.20;;
4569;SDS011;2297;51.442;6.996;2024-02-21T14:03:10;11.00;;;3.08;;
4569;SDS011;2297;51.442;6.996;2024-02-21T14:05:37;7.30;;;3.10;;
4569;SDS011;2297;51.442;6.996;2024-02-21T14:08:04;6.55;;;3.05;;
4569;SDS011;2297;51.442;6.996;2024-02-21T14:10:32;16.60;;;3.70;;
4569;SDS011;2297;51.442;6.996;2024-02-21T14:12:58;12.98;;;3.35;;
4569;SDS011;2297;51.442;6.996;2024-02-21T14:15:27;11.07;;;3.28;;
4569;SDS011;2297;51.442;6.996;2024-02-21T14:17:53;7.55;;;3.15;;
4569;SDS011;2297;51.442;6.996;2024-02-21T14:23:44;6.03;;;3.28;;
4569;SDS011;2297;51.442;6.996;2024-02-21T14:26:11;7.97;;;3.30;;
4569;SDS011;2297;51.442;6.996;2024-02-21T14:28:39;7.75;;;3.50;;
4569;SDS011;2297;51.442;6.996;2024-02-21T14:31:08;8.60;;;3.50;;
4569;SDS011;2297;51.442;6.996;2024-02-21T14:33:35;10.07;;;3.25;;
4569;SDS011;2297;51.442;6.996;2024-02-21T14:36:02;9.45;;;3.75;;
4569;SDS011;2297;51.442;6.996;2024-02-21T14:38:29;8.13;;;3.08;;
4569;SDS011;2297;51.442;6.996;2024-02-21T14:40:55;11.35;;;3.30;;
4569;SDS011;2297;51.442;6.996;2024-02-21T14:43:22;7.63;;;3.30;;
4569;SDS011;2297;51.442;6.996;2024-02-21T14:45:49;8.13;;;3.35;;
4569;SDS011;2297;51.442;6.996;2024-02-21T14:48:17;10.00;;;3.78;;
4569;SDS011;2297;51.442;6.996;2024-02-21T14:50:44;7.38;;;3.30;;
4569;SDS011;2297;51.442;6.996;2024-02-21T14:53:10;11.55;;;4.25;;
4569;SDS011;2297;51.442;6.996;2024-02-21T14:55:37;6.85;;;3.25;;
4569;SDS011;2297;51.442;6.996;2024-02-21T14:58:05;11.35;;;3.22;;
4569;SDS011;2297;51.442;6.996;2024-02-21T15:00:32;10.57;;;3.75;;
4569;SDS011;2297;51.442;6.996;2024-02-21T15:02:59;16.20;;;3.30;;
4569;SDS011;2297;51.442;6.996;2024-02-21T15:05:27;10.45;;;3.45;;
4569;SDS011;2297;51.442;6.996;2024-02-21T15:07:55;12.55;;;3.60;;
4569;SDS011;2297;51.442;6.996;2024-02-21T15:10:23;13.52;;;4.25;;
4569;SDS011;2297;51.442;6.996;2024-02-21T15:12:49;6.75;;;3.65;;
4569;SDS011;2297;51.442;6.996;2024-02-21T15:15:16;9.40;;;3.08;;
4569;SDS011;2297;51.442;6.996;2024-02-21T15:17:43;8.57;;;3.72;;
4569;SDS011;2297;51.442;6.996;2024-02-21T15:20:09;14.23;;;3.58;;
4569;SDS011;2297;51.442;6.996;2024-02-21T15:22:37;6.93;;;3.53;;
4569;SDS011;2297;51.442;6.996;2024-02-21T15:25:04;8.63;;;3.75;;
4569;SDS011;2297;51.442;6.996;2024-02-21T15:27:31;11.43;;;3.47;;